createdAt,value
2019-04-10T00:00:53.057Z,51.80
2019-04-10T00:03:31.188Z,51.60
2019-04-10T00:05:49.998Z,55.67
2019-04-10T00:08:17.859Z,51.97
2019-04-10T00:10:45.834Z,53.33
2019-04-10T00:13:14.220Z,53.63
2019-04-10T00:15:42.443Z,56.37
2019-04-10T00:18:09.941Z,60.57
2019-04-10T00:20:39.193Z,56.97
2019-04-10T00:23:06.863Z,55.03
2019-04-10T00:25:34.988Z,54.30
2019-04-10T00:28:03.253Z,56.47
2019-04-10T00:30:31.241Z,52.40
2019-04-10T00:32:59.093Z,56.97
2019-04-10T00:35:27.632Z,52.93
2019-04-10T00:37:55.540Z,59.70
2019-04-10T00:40:23.545Z,56.60
2019-04-10T00:42:51.643Z,55.63
2019-04-10T00:45:20.249Z,60.27
2019-04-10T00:47:47.806Z,57.00
2019-04-10T00:50:15.221Z,56.43
2019-04-10T00:52:42.638Z,61.63
2019-04-10T00:55:11.212Z,58.70
2019-04-10T00:57:39.344Z,62.23
2019-04-10T01:00:06.892Z,56.73
2019-04-10T01:02:36.374Z,52.17
2019-04-10T01:05:04.208Z,53.50
2019-04-10T01:07:36.559Z,59.73
2019-04-10T01:10:01.961Z,54.47
2019-04-10T01:12:30.130Z,57.63
2019-04-10T01:14:58.165Z,54.63
2019-04-10T01:17:26.325Z,55.40
2019-04-10T01:19:54.428Z,49.77
2019-04-10T01:22:21.859Z,54.47
2019-04-10T01:24:50.127Z,57.10
2019-04-10T01:27:18.022Z,53.37
2019-04-10T01:29:46.104Z,56.57
2019-04-10T01:32:13.759Z,54.80
2019-04-10T01:34:41.327Z,50.07
2019-04-10T01:37:08.771Z,53.40
2019-04-10T01:39:36.288Z,53.37
2019-04-10T01:42:04.053Z,50.53
2019-04-10T01:44:31.452Z,59.10
2019-04-10T01:46:59.153Z,53.83
2019-04-10T01:49:26.658Z,55.43
2019-04-10T01:51:54.066Z,53.20
2019-04-10T01:54:22.581Z,49.40
2019-04-10T01:56:50.201Z,51.97
2019-04-10T01:59:19.465Z,51.00
2019-04-10T02:01:52.604Z,54.37
2019-04-10T02:04:20.161Z,57.63
2019-04-10T02:06:47.542Z,59.83
2019-04-10T02:09:15.080Z,60.27
2019-04-10T02:11:42.538Z,63.63
2019-04-10T02:14:09.970Z,64.37
2019-04-10T02:16:37.460Z,58.43
2019-04-10T02:19:05.976Z,64.43
2019-04-10T02:21:34.025Z,62.10
2019-04-10T02:24:02.850Z,61.93
2019-04-10T02:26:31.740Z,60.30
2019-04-10T02:28:59.557Z,61.47
2019-04-10T02:31:28.554Z,61.63
2019-04-10T02:33:59.524Z,61.43
2019-04-10T02:36:27.778Z,51.40
2019-04-10T02:39:08.780Z,56.17
2019-04-10T02:41:25.751Z,61.63
2019-04-10T02:43:53.767Z,63.80
2019-04-10T02:46:22.012Z,64.13
2019-04-10T02:48:50.067Z,66.80
2019-04-10T02:51:17.634Z,65.03
2019-04-10T02:53:46.532Z,70.70
2019-04-10T02:56:15.886Z,69.20
2019-04-10T02:58:44.552Z,70.50
2019-04-10T03:01:13.379Z,78.23
2019-04-10T03:03:42.359Z,84.17
2019-04-10T03:06:11.442Z,83.47
2019-04-10T03:08:56.337Z,86.50
2019-04-10T03:11:11.733Z,88.60
2019-04-10T03:13:38.264Z,94.10
2019-04-10T03:16:07.497Z,91.00
2019-04-10T03:18:35.026Z,96.17
2019-04-10T03:21:02.728Z,89.83
2019-04-10T03:23:30.245Z,91.70
2019-04-10T03:25:57.709Z,92.47
2019-04-10T03:28:25.096Z,95.17
2019-04-10T03:30:53.810Z,90.37
2019-04-10T03:33:30.441Z,94.57
2019-04-10T03:35:57.138Z,92.20
2019-04-10T03:38:25.716Z,92.27
2019-04-10T03:40:53.422Z,93.50
2019-04-10T03:43:21.562Z,100.00
2019-04-10T03:45:49.104Z,97.27
2019-04-10T03:48:16.525Z,100.20
2019-04-10T03:50:43.919Z,96.50
2019-04-10T03:53:11.372Z,95.23
2019-04-10T03:55:38.928Z,95.33
2019-04-10T03:58:07.135Z,99.80
2019-04-10T04:00:34.672Z,95.67
2019-04-10T04:03:02.534Z,99.90
2019-04-10T04:05:30.864Z,97.73
2019-04-10T04:07:59.173Z,97.57
2019-04-10T04:10:26.852Z,101.13
2019-04-10T04:12:55.120Z,105.33
2019-04-10T04:15:22.600Z,100.53
2019-04-10T04:17:50.611Z,104.77
2019-04-10T04:20:19.071Z,99.10
2019-04-10T04:22:47.565Z,95.73
2019-04-10T04:25:15.519Z,123.27
2019-04-10T04:27:44.129Z,106.77
2019-04-10T04:30:12.621Z,105.70
2019-04-10T04:32:40.562Z,102.93
2019-04-10T04:35:08.994Z,97.77
2019-04-10T04:37:36.457Z,95.73
2019-04-10T04:40:05.544Z,91.20
2019-04-10T04:42:33.113Z,100.27
2019-04-10T04:45:00.806Z,101.33
2019-04-10T04:47:28.745Z,90.13
2019-04-10T04:49:56.431Z,103.23
2019-04-10T04:52:24.010Z,97.07
2019-04-10T04:54:51.520Z,94.30
2019-04-10T04:57:18.854Z,97.30
2019-04-10T04:59:46.135Z,102.40
2019-04-10T05:02:14.345Z,97.57
2019-04-10T05:04:41.807Z,102.00
2019-04-10T05:07:10.356Z,97.03
2019-04-10T05:09:39.349Z,103.73
2019-04-10T05:12:07.234Z,98.23
2019-04-10T05:14:35.623Z,107.27
2019-04-10T05:17:03.909Z,99.27
2019-04-10T05:19:31.338Z,101.40
2019-04-10T05:21:59.504Z,99.47
2019-04-10T05:24:27.949Z,106.10
2019-04-10T05:26:55.396Z,102.47
2019-04-10T05:29:22.829Z,104.10
2019-04-10T05:31:51.008Z,105.97
2019-04-10T05:34:18.529Z,101.40
2019-04-10T05:36:46.778Z,104.83
2019-04-10T05:39:14.707Z,103.47
2019-04-10T05:41:42.221Z,96.27
2019-04-10T05:44:09.600Z,101.60
2019-04-10T05:46:37.047Z,104.50
2019-04-10T05:49:04.719Z,104.27
2019-04-10T05:51:33.020Z,103.20
2019-04-10T05:54:00.534Z,100.87
2019-04-10T05:56:28.000Z,98.60
2019-04-10T05:58:55.374Z,110.17
2019-04-10T06:01:32.413Z,108.77
2019-04-10T06:03:52.575Z,110.37
2019-04-10T06:06:22.124Z,103.50
2019-04-10T06:08:49.571Z,102.50
2019-04-10T06:11:17.194Z,106.93
2019-04-10T06:13:45.187Z,107.50
2019-04-10T06:16:15.292Z,108.77
2019-04-10T06:18:43.085Z,102.50
2019-04-10T06:21:10.526Z,102.60
2019-04-10T06:23:37.961Z,102.40
2019-04-10T06:26:06.762Z,94.30
2019-04-10T06:28:34.587Z,100.83
2019-04-10T06:31:02.125Z,99.57
2019-04-10T06:33:29.660Z,95.43
2019-04-10T06:35:57.425Z,98.80
2019-04-10T06:38:25.202Z,97.67
2019-04-10T06:40:52.599Z,91.77
2019-04-10T06:43:21.012Z,97.20
2019-04-10T06:45:50.262Z,96.90
2019-04-10T06:48:17.701Z,98.20
2019-04-10T06:50:45.981Z,93.27
2019-04-10T06:53:15.878Z,97.40
2019-04-10T06:55:43.246Z,104.70
2019-04-10T06:58:11.659Z,94.37
2019-04-10T07:00:40.965Z,92.70
2019-04-10T07:03:08.648Z,92.53
2019-04-10T07:05:41.356Z,90.30
2019-04-10T07:08:12.390Z,94.63
2019-04-10T07:10:47.937Z,92.67
2019-04-10T07:13:08.542Z,95.90
2019-04-10T07:15:33.756Z,91.57
2019-04-10T07:18:01.357Z,89.40
2019-04-10T07:20:29.584Z,91.70
2019-04-10T07:22:58.229Z,90.03
2019-04-10T07:25:25.913Z,92.93
2019-04-10T07:27:54.360Z,95.67
2019-04-10T07:30:25.354Z,90.53
2019-04-10T07:32:51.091Z,87.00
2019-04-10T07:35:20.296Z,92.73
2019-04-10T07:37:52.556Z,87.40
2019-04-10T07:40:18.498Z,90.33
2019-04-10T07:42:46.553Z,88.90
2019-04-10T07:45:14.253Z,83.50
2019-04-10T07:47:42.061Z,82.37
2019-04-10T07:50:10.328Z,91.77
2019-04-10T07:52:38.269Z,89.30
2019-04-10T07:55:15.045Z,88.37
2019-04-10T07:57:51.772Z,92.20
2019-04-10T08:00:20.137Z,83.37
2019-04-10T08:02:49.046Z,84.53
2019-04-10T08:05:16.706Z,92.40
2019-04-10T08:07:45.246Z,89.73
2019-04-10T08:10:12.854Z,85.90
2019-04-10T08:12:47.372Z,83.70
2019-04-10T08:15:13.310Z,93.47
2019-04-10T08:17:41.129Z,82.13
2019-04-10T08:20:08.561Z,89.23
2019-04-10T08:22:37.129Z,86.07
2019-04-10T08:25:05.053Z,87.00
2019-04-10T08:27:32.505Z,82.53
2019-04-10T08:30:01.108Z,83.97
2019-04-10T08:32:28.636Z,81.40
2019-04-10T08:34:56.545Z,80.63
2019-04-10T08:37:24.202Z,77.40
2019-04-10T08:39:52.666Z,73.40
2019-04-10T08:42:20.285Z,78.23
2019-04-10T08:44:48.771Z,82.93
2019-04-10T08:47:17.281Z,76.13
2019-04-10T08:49:45.302Z,75.10
2019-04-10T08:52:13.779Z,78.00
2019-04-10T08:54:42.577Z,75.17
2019-04-10T08:57:11.141Z,79.93
2019-04-10T08:59:40.227Z,75.20
2019-04-10T09:02:07.736Z,82.20
2019-04-10T09:04:35.055Z,74.23
2019-04-10T09:07:03.832Z,72.30
2019-04-10T09:09:31.931Z,75.17
2019-04-10T09:11:59.870Z,79.87
2019-04-10T09:14:27.704Z,73.87
2019-04-10T09:16:55.274Z,75.27
2019-04-10T09:19:22.694Z,83.60
2019-04-10T09:21:50.111Z,73.43
2019-04-10T09:24:17.538Z,77.23
2019-04-10T09:26:44.895Z,74.87
2019-04-10T09:29:12.425Z,76.57
2019-04-10T09:31:40.058Z,78.50
2019-04-10T09:34:07.641Z,74.07
2019-04-10T09:36:35.498Z,76.90
2019-04-10T09:39:05.343Z,72.50
2019-04-10T09:41:34.213Z,74.87
2019-04-10T09:44:02.492Z,76.50
2019-04-10T09:46:31.059Z,75.23
2019-04-10T09:48:58.605Z,70.03
2019-04-10T09:51:25.977Z,70.57
2019-04-10T09:53:53.426Z,68.27
2019-04-10T09:56:21.391Z,59.87
2019-04-10T09:58:49.147Z,70.93
2019-04-10T10:01:17.841Z,67.87
2019-04-10T10:03:45.457Z,71.73
2019-04-10T10:06:24.320Z,75.20
2019-04-10T10:08:43.688Z,66.37
2019-04-10T10:11:11.579Z,67.07
2019-04-10T10:13:39.361Z,67.60
2019-04-10T10:16:06.776Z,74.53
2019-04-10T10:18:35.208Z,71.47
2019-04-10T10:21:04.030Z,71.37
2019-04-10T10:23:31.795Z,68.70
2019-04-10T10:25:59.618Z,72.70
2019-04-10T10:28:27.104Z,70.57
2019-04-10T10:30:55.667Z,71.70
2019-04-10T10:33:23.720Z,67.23
2019-04-10T10:35:51.550Z,71.30
2019-04-10T10:38:19.093Z,67.43
2019-04-10T10:40:46.730Z,67.40
2019-04-10T10:43:14.138Z,65.37
2019-04-10T10:45:42.812Z,68.53
2019-04-10T10:48:11.598Z,70.03
2019-04-10T10:50:39.499Z,63.53
2019-04-10T10:53:08.062Z,66.57
2019-04-10T10:55:36.415Z,69.83
2019-04-10T10:58:03.913Z,65.37
2019-04-10T11:00:31.473Z,64.03
2019-04-10T11:02:58.862Z,62.90
2019-04-10T11:05:27.278Z,62.17
2019-04-10T11:07:55.836Z,69.80
2019-04-10T11:10:27.060Z,65.43
2019-04-10T11:12:53.583Z,66.50
2019-04-10T11:15:22.312Z,64.80
2019-04-10T11:17:50.139Z,66.27
2019-04-10T11:20:17.854Z,69.20
2019-04-10T11:22:45.407Z,62.87
2019-04-10T11:25:13.557Z,64.50
2019-04-10T11:27:42.035Z,61.07
2019-04-10T11:30:10.520Z,69.37
2019-04-10T11:32:38.291Z,65.63
2019-04-10T11:35:06.720Z,65.67
2019-04-10T11:40:06.121Z,67.07
2019-04-10T11:42:35.032Z,63.80
2019-04-10T11:45:05.210Z,65.17
2019-04-10T11:47:34.709Z,61.10
2019-04-10T11:50:05.999Z,63.67
2019-04-10T11:52:36.379Z,62.87
2019-04-10T11:55:07.069Z,67.00
2019-04-10T11:57:32.580Z,68.60
2019-04-10T12:00:02.525Z,66.13
2019-04-10T12:02:34.425Z,63.50
2019-04-10T12:05:08.616Z,66.67
2019-04-10T12:08:02.063Z,61.17
2019-04-10T12:12:31.212Z,64.83
2019-04-10T12:14:59.748Z,60.63
2019-04-10T12:17:27.721Z,63.17
2019-04-10T12:19:55.068Z,65.03
2019-04-10T12:22:23.307Z,62.17
2019-04-10T12:24:51.687Z,59.30
2019-04-10T12:27:19.183Z,67.93
2019-04-10T12:29:46.750Z,61.73
2019-04-10T12:32:14.585Z,62.53
2019-04-10T12:34:42.470Z,58.90
2019-04-10T12:37:11.117Z,57.40
2019-04-10T12:39:39.132Z,53.20
2019-04-10T12:42:06.683Z,59.83
2019-04-10T12:44:34.075Z,54.63
2019-04-10T12:47:02.016Z,53.60
2019-04-10T12:49:35.944Z,49.50
2019-04-10T12:52:08.033Z,48.13
2019-04-10T12:54:35.559Z,52.60
2019-04-10T12:57:02.976Z,53.20
2019-04-10T12:59:31.148Z,54.43
2019-04-10T13:01:59.191Z,47.97
2019-04-10T13:04:26.673Z,52.43
2019-04-10T13:06:54.815Z,50.93
2019-04-10T13:09:26.218Z,58.40
2019-04-10T13:11:55.267Z,56.33
2019-04-10T13:14:24.418Z,55.50
2019-04-10T13:16:52.197Z,53.20
2019-04-10T13:19:21.170Z,59.50
2019-04-10T13:21:48.666Z,54.10
2019-04-10T13:24:16.072Z,55.67
2019-04-10T13:26:43.443Z,58.43
2019-04-10T13:29:10.762Z,51.83
2019-04-10T13:31:38.315Z,54.63
2019-04-10T13:34:05.861Z,55.23
2019-04-10T13:36:33.511Z,55.17
2019-04-10T13:39:00.933Z,52.77
2019-04-10T13:41:28.344Z,52.43
2019-04-10T13:43:55.832Z,52.63
2019-04-10T13:46:23.273Z,55.17
2019-04-10T13:48:50.723Z,52.23
2019-04-10T13:51:19.100Z,54.43
2019-04-10T13:53:46.884Z,50.83
2019-04-10T13:56:14.909Z,53.43
2019-04-10T13:58:42.663Z,49.67
2019-04-10T14:01:14.175Z,52.53
2019-04-10T14:03:43.748Z,48.27
2019-04-10T14:06:11.657Z,52.10
2019-04-10T14:08:58.732Z,51.30
2019-04-10T14:11:08.996Z,45.93
2019-04-10T14:13:36.537Z,48.27
2019-04-10T14:16:04.466Z,47.27
2019-04-10T14:18:32.905Z,50.63
2019-04-10T14:21:01.556Z,49.50
2019-04-10T14:23:31.352Z,45.43
2019-04-10T14:26:45.991Z,45.63
2019-04-10T14:29:10.713Z,44.23
2019-04-10T14:31:41.233Z,41.13
2019-04-10T14:34:08.660Z,43.13
2019-04-10T14:36:36.107Z,40.33
2019-04-10T14:39:16.723Z,43.00
2019-04-10T14:41:40.567Z,40.63
2019-04-10T14:44:08.289Z,41.77
2019-04-10T14:46:36.035Z,38.27
2019-04-10T14:49:03.564Z,41.33
2019-04-10T14:51:30.956Z,37.90
2019-04-10T14:53:59.539Z,38.30
2019-04-10T14:56:26.930Z,36.63
2019-04-10T14:58:54.933Z,35.20
2019-04-10T15:01:22.546Z,39.57
2019-04-10T15:03:50.858Z,41.97
2019-04-10T15:06:21.314Z,47.07
2019-04-10T15:08:50.248Z,39.43
2019-04-10T15:11:18.325Z,35.63
2019-04-10T15:13:45.881Z,40.13
2019-04-10T15:16:13.270Z,36.83
2019-04-10T15:18:40.855Z,33.43
2019-04-10T15:21:08.259Z,37.23
2019-04-10T15:23:35.878Z,38.67
2019-04-10T15:26:03.861Z,34.50
2019-04-10T15:28:31.805Z,36.60
2019-04-10T15:31:00.032Z,32.63
2019-04-10T15:33:28.900Z,34.17
2019-04-10T15:35:57.565Z,40.53
2019-04-10T15:38:26.979Z,40.67
2019-04-10T15:40:54.625Z,34.30
2019-04-10T15:43:23.891Z,33.90
2019-04-10T15:45:52.310Z,33.97
2019-04-10T15:48:20.865Z,36.70
2019-04-10T15:50:49.542Z,36.57
2019-04-10T15:53:18.098Z,32.07
2019-04-10T15:55:45.629Z,31.33
2019-04-10T15:58:14.995Z,34.60
2019-04-10T16:00:43.536Z,36.63
2019-04-10T16:03:11.533Z,32.60
2019-04-10T16:05:39.797Z,31.70
2019-04-10T16:08:12.071Z,36.07
2019-04-10T16:10:57.772Z,34.60
2019-04-10T16:13:42.773Z,32.90
2019-04-10T16:16:42.260Z,34.93
2019-04-10T16:19:20.716Z,30.33
2019-04-10T16:21:48.210Z,32.90
2019-04-10T16:24:16.529Z,37.23
2019-04-10T16:26:44.517Z,36.13
2019-04-10T16:29:11.949Z,32.33
2019-04-10T16:31:39.894Z,34.13
2019-04-10T16:34:07.556Z,38.87
2019-04-10T16:36:35.225Z,35.17
2019-04-10T16:39:04.950Z,35.10
2019-04-10T16:41:35.376Z,34.53
2019-04-10T16:44:04.560Z,39.90
2019-04-10T16:46:32.168Z,33.73
2019-04-10T16:49:00.224Z,34.07
2019-04-10T16:51:28.096Z,34.27
2019-04-10T16:53:55.957Z,35.53
2019-04-10T16:56:23.576Z,35.50
2019-04-10T16:58:52.177Z,32.23
2019-04-10T17:01:20.510Z,32.17
2019-04-10T17:03:48.361Z,34.93
2019-04-10T17:06:15.827Z,33.47
2019-04-10T17:08:43.954Z,34.20
2019-04-10T17:11:12.630Z,37.67
2019-04-10T17:13:40.433Z,30.93
2019-04-10T17:16:07.941Z,34.57
2019-04-10T17:18:35.368Z,37.40
2019-04-10T17:21:02.949Z,35.67
2019-04-10T17:23:30.610Z,33.57
2019-04-10T17:25:58.302Z,47.80
2019-04-10T17:28:26.622Z,35.33
2019-04-10T17:30:56.508Z,41.97
2019-04-10T17:33:25.535Z,43.13
2019-04-10T17:35:53.954Z,36.77
2019-04-10T17:38:22.580Z,39.47
2019-04-10T17:40:53.824Z,38.83
2019-04-10T17:43:20.978Z,35.90
2019-04-10T17:45:48.957Z,37.17
2019-04-10T17:48:19.974Z,38.70
2019-04-10T17:50:48.005Z,37.77
2019-04-10T17:53:19.209Z,36.77
2019-04-10T17:55:48.089Z,39.47
2019-04-10T17:58:15.675Z,38.30
2019-04-10T18:00:48.267Z,39.10
2019-04-10T18:03:18.673Z,38.23
2019-04-10T18:05:46.846Z,38.50
2019-04-10T18:08:16.676Z,47.70
2019-04-10T18:10:49.400Z,36.37
2019-04-10T18:13:13.838Z,41.60
2019-04-10T18:15:41.684Z,44.20
2019-04-10T18:18:09.392Z,41.83
2019-04-10T18:20:36.955Z,44.27
2019-04-10T18:23:05.629Z,43.93
2019-04-10T18:25:33.922Z,43.00
2019-04-10T18:28:01.649Z,47.27
2019-04-10T18:30:34.103Z,43.83
2019-04-10T18:33:03.224Z,41.63
2019-04-10T18:35:30.867Z,41.23
2019-04-10T18:37:59.776Z,47.07
2019-04-10T18:40:27.284Z,39.97
2019-04-10T18:42:57.603Z,41.27
2019-04-10T18:45:25.922Z,40.70
2019-04-10T18:47:54.365Z,42.87
2019-04-10T18:50:22.352Z,41.10
2019-04-10T18:52:49.862Z,37.23
2019-04-10T18:55:18.316Z,42.63
2019-04-10T18:57:45.835Z,43.17
2019-04-10T19:00:36.506Z,41.43
2019-04-10T19:03:18.186Z,44.03
2019-04-10T19:05:48.473Z,40.47
2019-04-10T19:08:16.424Z,44.07
2019-04-10T19:10:45.158Z,43.60
2019-04-10T19:13:13.034Z,38.47
2019-04-10T19:15:41.739Z,39.43
2019-04-10T19:18:09.264Z,41.60
2019-04-10T19:20:36.508Z,41.10
2019-04-10T19:23:04.391Z,41.37
2019-04-10T19:25:32.530Z,38.13
2019-04-10T19:28:00.359Z,40.37
2019-04-10T19:30:35.357Z,40.53
2019-04-10T19:33:03.383Z,40.83
2019-04-10T19:35:31.110Z,39.57
2019-04-10T19:37:58.847Z,39.47
2019-04-10T19:40:26.358Z,38.27
2019-04-10T19:42:54.161Z,40.30
2019-04-10T19:45:21.606Z,45.17
2019-04-10T19:47:49.044Z,38.93
2019-04-10T19:50:17.336Z,40.23
2019-04-10T19:52:44.817Z,42.67
2019-04-10T19:55:12.197Z,43.70
2019-04-10T19:57:39.690Z,37.17
2019-04-10T20:00:08.405Z,43.67
2019-04-10T20:02:35.932Z,41.87
2019-04-10T20:05:05.176Z,41.13
2019-04-10T20:07:33.984Z,44.50
2019-04-10T20:10:02.657Z,34.63
2019-04-10T20:12:32.993Z,43.00
2019-04-10T20:15:00.703Z,36.97
2019-04-10T20:17:28.305Z,40.50
2019-04-10T20:19:57.166Z,42.27
2019-04-10T20:22:27.748Z,39.57
2019-04-10T20:24:56.794Z,39.83
2019-04-10T20:27:26.204Z,46.40
2019-04-10T20:29:53.630Z,38.27
2019-04-10T20:32:21.761Z,39.63
2019-04-10T20:34:49.680Z,39.77
2019-04-10T20:37:17.225Z,38.53
2019-04-10T20:39:45.441Z,41.30
2019-04-10T20:42:14.013Z,39.93
2019-04-10T20:44:41.381Z,40.67
2019-04-10T20:47:08.887Z,41.93
2019-04-10T20:49:36.549Z,39.53
2019-04-10T20:52:04.227Z,39.57
2019-04-10T20:54:32.875Z,37.43
2019-04-10T20:57:01.204Z,47.40
2019-04-10T20:59:30.563Z,43.30
2019-04-10T21:01:58.155Z,41.20
2019-04-10T21:04:25.617Z,37.67
2019-04-10T21:06:53.054Z,41.53
2019-04-10T21:09:20.453Z,40.63
2019-04-10T21:12:00.835Z,33.50
2019-04-10T21:14:17.174Z,36.27
2019-04-10T21:16:44.529Z,37.90
2019-04-10T21:19:12.864Z,37.10
2019-04-10T21:21:41.375Z,33.70
2019-04-10T21:24:09.280Z,41.67
2019-04-10T21:26:36.854Z,38.67
2019-04-10T21:29:06.629Z,33.53
2019-04-10T21:31:59.198Z,37.67
2019-04-10T21:34:46.788Z,33.73
2019-04-10T21:37:15.895Z,33.13
2019-04-10T21:39:43.778Z,40.00
2019-04-10T21:42:19.591Z,32.53
2019-04-10T21:44:40.715Z,40.80
2019-04-10T21:47:08.905Z,33.87
2019-04-10T21:49:36.448Z,36.90
2019-04-10T21:52:03.886Z,33.83
2019-04-10T21:54:31.402Z,38.90
2019-04-10T21:56:59.833Z,35.67
2019-04-10T21:59:27.328Z,38.00
2019-04-10T22:01:56.957Z,33.43
2019-04-10T22:04:25.218Z,37.43
2019-04-10T22:07:07.666Z,31.23
2019-04-10T22:09:51.057Z,34.27
2019-04-10T22:12:31.789Z,29.93
2019-04-10T22:14:56.105Z,29.63
2019-04-10T22:17:24.655Z,28.47
2019-04-10T22:19:52.851Z,32.47
2019-04-10T22:22:20.385Z,26.03
2019-04-10T22:24:48.609Z,28.63
2019-04-10T22:27:17.019Z,29.70
2019-04-10T22:29:44.968Z,29.63
2019-04-10T22:32:12.485Z,25.27
2019-04-10T22:34:40.350Z,26.73
2019-04-10T22:37:08.231Z,27.33
2019-04-10T22:39:35.887Z,24.10
2019-04-10T22:42:03.839Z,23.70
2019-04-10T22:44:36.634Z,25.23
2019-04-10T22:47:00.952Z,24.73
2019-04-10T22:49:28.790Z,25.97
2019-04-10T22:51:56.294Z,20.73
2019-04-10T22:54:23.734Z,24.93
2019-04-10T22:56:51.296Z,25.90
2019-04-10T22:59:18.611Z,23.97
2019-04-10T23:01:58.856Z,27.67
2019-04-10T23:04:15.390Z,28.37
2019-04-10T23:06:42.870Z,23.63
2019-04-10T23:09:11.838Z,28.00
2019-04-10T23:11:42.229Z,25.57
2019-04-10T23:14:10.145Z,22.90
2019-04-10T23:16:37.968Z,19.63
2019-04-10T23:19:05.739Z,24.47
2019-04-10T23:21:33.500Z,20.53
2019-04-10T23:24:00.954Z,19.97
2019-04-10T23:26:29.149Z,22.43
2019-04-10T23:28:57.899Z,22.07
2019-04-10T23:31:25.757Z,21.33
2019-04-10T23:33:54.422Z,26.40
2019-04-10T23:36:23.058Z,22.60
2019-04-10T23:38:52.047Z,25.47
2019-04-10T23:41:19.638Z,23.90
2019-04-10T23:43:48.089Z,23.30
2019-04-10T23:46:15.768Z,20.97
2019-04-10T23:48:43.315Z,21.10
2019-04-10T23:51:10.795Z,25.03
2019-04-10T23:53:38.422Z,20.27
2019-04-10T23:56:06.260Z,19.87
2019-04-10T23:58:33.952Z,20.73
